createdAt,value
2022-08-11T00:02:07.099Z,20.34
2022-08-11T00:07:19.124Z,20.26
2022-08-11T00:12:22.344Z,20.20
2022-08-11T00:17:30.726Z,20.15
2022-08-11T00:22:35.162Z,20.09
2022-08-11T00:27:40.399Z,20.01
2022-08-11T00:32:47.232Z,20.03
2022-08-11T00:37:51.923Z,20.01
2022-08-11T00:43:02.909Z,19.80
2022-08-11T00:48:15.473Z,19.70
2022-08-11T00:53:44.362Z,19.77
2022-08-11T00:59:35.149Z,19.78
2022-08-11T01:05:27.235Z,19.65
2022-08-11T01:10:59.497Z,19.69
2022-08-11T01:16:48.083Z,19.67
2022-08-11T01:22:24.690Z,19.65
2022-08-11T01:27:59.753Z,19.62
2022-08-11T01:33:46.950Z,19.60
2022-08-11T01:39:23.001Z,19.55
2022-08-11T01:44:55.814Z,19.49
2022-08-11T01:50:10.612Z,19.50
2022-08-11T01:55:24.124Z,19.33
2022-08-11T02:00:31.337Z,19.34
2022-08-11T02:06:01.137Z,19.33
2022-08-11T02:11:35.226Z,19.33
2022-08-11T02:16:51.009Z,19.16
2022-08-11T02:22:18.793Z,19.11
2022-08-11T02:27:28.358Z,19.11
2022-08-11T02:32:55.397Z,19.09
2022-08-11T02:38:13.162Z,19.03
2022-08-11T02:43:36.612Z,18.99
2022-08-11T02:49:09.611Z,19.04
2022-08-11T02:54:23.604Z,19.05
2022-08-11T02:59:53.635Z,19.03
2022-08-11T03:05:07.275Z,18.94
2022-08-11T03:10:19.281Z,18.94
2022-08-11T03:15:58.287Z,18.76
2022-08-11T03:21:08.859Z,18.79
2022-08-11T03:26:29.138Z,18.68
2022-08-11T03:31:36.644Z,18.70
2022-08-11T03:37:17.594Z,18.69
2022-08-11T03:42:30.276Z,18.63
2022-08-11T03:47:52.642Z,18.71
2022-08-11T03:53:13.607Z,18.60
2022-08-11T03:58:59.071Z,18.61
2022-08-11T04:04:32.842Z,18.52
2022-08-11T04:10:16.651Z,18.59
2022-08-11T04:16:12.009Z,18.63
2022-08-11T04:21:41.938Z,18.73
2022-08-11T04:27:14.592Z,18.75
2022-08-11T04:32:36.312Z,18.72
2022-08-11T04:38:06.498Z,18.85
2022-08-11T04:44:05.879Z,18.94
2022-08-11T04:50:13.954Z,19.07
2022-08-11T04:55:57.500Z,19.17
2022-08-11T05:01:37.314Z,19.23
2022-08-11T05:07:48.396Z,19.24
2022-08-11T05:12:56.159Z,19.45
2022-08-11T05:18:21.406Z,19.61
2022-08-11T05:23:46.189Z,19.67
2022-08-11T05:29:20.222Z,19.81
2022-08-11T05:34:44.273Z,19.92
2022-08-11T05:40:07.958Z,20.04
2022-08-11T05:45:58.128Z,20.21
2022-08-11T05:51:16.921Z,20.34
2022-08-11T05:56:20.772Z,20.52
2022-08-11T06:01:28.002Z,20.72
2022-08-11T06:06:32.511Z,20.87
2022-08-11T06:11:44.081Z,21.51
2022-08-11T06:16:51.249Z,21.58
2022-08-11T06:22:05.187Z,21.63
2022-08-11T06:29:18.829Z,21.58
2022-08-11T06:33:43.922Z,22.21
2022-08-11T06:39:10.911Z,22.60
2022-08-11T06:44:30.448Z,22.84
2022-08-11T06:50:05.640Z,23.85
2022-08-11T06:55:56.980Z,24.63
2022-08-11T07:00:37.100Z,27.17
2022-08-11T07:05:50.203Z,30.31
2022-08-11T07:11:23.965Z,32.46
2022-08-11T07:16:29.837Z,37.22
2022-08-11T07:22:02.262Z,38.67
2022-08-11T07:27:27.164Z,39.81
2022-08-11T07:32:33.827Z,40.29
2022-08-11T07:37:38.569Z,41.25
2022-08-11T07:42:46.495Z,41.42
2022-08-11T07:48:07.286Z,40.73
2022-08-11T07:53:14.192Z,40.20
2022-08-11T07:58:41.424Z,40.43
2022-08-11T08:04:06.532Z,37.77
2022-08-11T08:09:29.036Z,38.07
2022-08-11T08:14:50.234Z,37.07
2022-08-11T08:19:53.614Z,34.47
2022-08-11T08:24:58.784Z,34.26
2022-08-11T08:30:20.503Z,31.28
2022-08-11T08:35:23.943Z,29.42
2022-08-11T08:40:28.716Z,28.22
2022-08-11T08:45:37.729Z,27.55
2022-08-11T08:51:17.131Z,27.74
2022-08-11T08:56:26.277Z,27.65
2022-08-11T09:01:31.584Z,27.61
2022-08-11T09:06:35.211Z,27.36
2022-08-11T09:11:53.630Z,27.44
2022-08-11T09:16:56.685Z,27.74
2022-08-11T09:22:15.501Z,27.88
2022-08-11T09:27:22.576Z,27.53
2022-08-11T09:32:26.600Z,27.42
2022-08-11T09:37:55.985Z,27.49
2022-08-11T09:43:28.926Z,27.70
2022-08-11T09:48:36.190Z,27.82
2022-08-11T09:53:41.650Z,27.55
2022-08-11T09:59:06.800Z,27.58
2022-08-11T10:04:16.350Z,27.73
2022-08-11T10:09:21.323Z,27.76
2022-08-11T10:14:51.052Z,27.77
2022-08-11T10:20:05.145Z,27.78
2022-08-11T10:25:27.332Z,27.66
2022-08-11T10:30:49.561Z,27.58
2022-08-11T10:35:52.989Z,27.35
2022-08-11T10:41:10.505Z,27.50
2022-08-11T10:46:32.740Z,28.01
2022-08-11T10:51:54.067Z,27.60
2022-08-11T10:57:19.564Z,27.68
2022-08-11T11:02:27.224Z,27.88
2022-08-11T11:07:44.515Z,28.03
2022-08-11T11:13:10.386Z,28.36
2022-08-11T11:18:20.315Z,28.39
2022-08-11T11:23:26.956Z,28.34
2022-08-11T11:28:44.143Z,28.18
2022-08-11T11:34:14.914Z,28.45
2022-08-11T11:39:21.306Z,28.47
2022-08-11T11:44:25.504Z,28.59
2022-08-11T11:49:32.344Z,28.62
2022-08-11T11:54:36.945Z,28.87
2022-08-11T11:59:57.591Z,28.99
2022-08-11T12:05:08.899Z,28.81
2022-08-11T12:10:11.969Z,28.83
2022-08-11T12:15:19.009Z,28.79
2022-08-11T12:20:54.023Z,28.44
2022-08-11T12:26:26.896Z,28.70
2022-08-11T12:31:31.254Z,28.26
2022-08-11T12:36:39.964Z,28.67
2022-08-11T12:42:01.837Z,28.96
2022-08-11T12:47:05.689Z,28.98
2022-08-11T12:52:15.893Z,29.05
2022-08-11T12:57:44.356Z,29.20
2022-08-11T13:03:05.710Z,28.61
2022-08-11T13:08:10.842Z,28.73
2022-08-11T13:13:55.553Z,28.80
2022-08-11T13:18:42.586Z,29.01
2022-08-11T13:23:59.915Z,28.97
2022-08-11T13:29:06.360Z,28.89
2022-08-11T13:34:10.592Z,29.18
2022-08-11T13:39:15.402Z,29.13
2022-08-11T13:44:25.376Z,29.39
2022-08-11T13:49:29.813Z,29.13
2022-08-11T13:54:38.407Z,29.25
2022-08-11T13:59:45.999Z,29.40
2022-08-11T14:04:58.817Z,29.21
2022-08-11T14:10:05.457Z,28.96
2022-08-11T14:15:19.865Z,29.16
2022-08-11T14:20:39.945Z,29.18
2022-08-11T14:26:01.868Z,28.77
2022-08-11T14:31:06.310Z,29.04
2022-08-11T14:36:11.806Z,29.05
2022-08-11T14:41:34.711Z,28.87
2022-08-11T14:46:55.283Z,29.08
2022-08-11T14:51:59.639Z,28.77
2022-08-11T14:57:04.377Z,28.99
2022-08-11T15:02:25.794Z,29.07
2022-08-11T15:07:30.690Z,29.22
2022-08-11T15:12:36.881Z,29.15
2022-08-11T15:17:43.774Z,29.06
2022-08-11T15:23:18.841Z,29.01
2022-08-11T15:28:45.688Z,29.07
2022-08-11T15:34:18.082Z,29.01
2022-08-11T15:39:25.935Z,28.99
2022-08-11T15:45:03.267Z,28.96
2022-08-11T15:50:11.245Z,28.62
2022-08-11T15:55:17.754Z,28.83
2022-08-11T16:00:40.568Z,28.65
2022-08-11T16:05:45.770Z,28.49
2022-08-11T16:10:51.246Z,28.57
2022-08-11T16:16:18.644Z,28.60
2022-08-11T16:21:33.626Z,28.56
2022-08-11T16:27:08.361Z,28.35
2022-08-11T16:32:22.063Z,28.46
2022-08-11T16:37:44.097Z,28.28
2022-08-11T16:43:10.287Z,28.26
2022-08-11T16:48:36.415Z,28.26
2022-08-11T16:53:59.739Z,28.09
2022-08-11T16:59:15.311Z,28.02
2022-08-11T17:04:46.410Z,27.90
2022-08-11T17:10:39.591Z,27.92
2022-08-11T17:15:50.922Z,27.81
2022-08-11T17:20:55.568Z,27.69
2022-08-11T17:26:03.358Z,27.52
2022-08-11T17:31:24.502Z,27.40
2022-08-11T17:36:29.043Z,27.29
2022-08-11T17:41:50.336Z,27.07
2022-08-11T17:47:11.612Z,27.05
2022-08-11T17:52:35.540Z,26.75
2022-08-11T17:57:58.405Z,26.83
2022-08-11T18:03:20.052Z,26.65
2022-08-11T18:08:42.893Z,26.54
2022-08-11T18:14:06.869Z,26.33
2022-08-11T18:19:30.724Z,26.34
2022-08-11T18:24:57.227Z,26.13
2022-08-11T18:30:19.867Z,26.08
2022-08-11T18:35:41.692Z,25.97
2022-08-11T18:41:06.095Z,25.98
2022-08-11T18:46:31.232Z,25.77
2022-08-11T18:52:37.447Z,25.57
2022-08-11T18:58:00.285Z,25.45
2022-08-11T19:03:24.032Z,25.23
2022-08-11T19:08:53.547Z,25.04
2022-08-11T19:14:16.565Z,24.92
2022-08-11T19:19:39.049Z,24.79
2022-08-11T19:25:01.083Z,24.62
2022-08-11T19:30:25.482Z,24.50
2022-08-11T19:35:47.216Z,24.19
2022-08-11T19:41:08.840Z,24.17
2022-08-11T19:46:31.753Z,24.08
2022-08-11T19:51:54.713Z,23.88
2022-08-11T19:57:16.117Z,23.84
2022-08-11T20:02:38.417Z,23.68
2022-08-11T20:08:00.124Z,23.54
2022-08-11T20:13:24.791Z,23.39
2022-08-11T20:18:48.712Z,23.27
2022-08-11T20:24:09.429Z,23.14
2022-08-11T20:29:30.086Z,23.09
2022-08-11T20:34:55.243Z,22.95
2022-08-11T20:40:23.745Z,22.83
2022-08-11T20:45:55.186Z,22.77
2022-08-11T20:51:20.366Z,22.63
2022-08-11T20:56:45.595Z,22.61
2022-08-11T21:02:09.419Z,22.51
2022-08-11T21:07:34.724Z,22.34
2022-08-11T21:12:58.473Z,22.20
2022-08-11T21:18:42.985Z,22.15
2022-08-11T21:24:06.949Z,22.01
2022-08-11T21:29:31.303Z,21.96
2022-08-11T21:34:54.122Z,21.95
2022-08-11T21:40:18.011Z,21.92
2022-08-11T21:45:38.688Z,21.75
2022-08-11T21:50:58.798Z,21.80
2022-08-11T21:56:22.119Z,21.82
2022-08-11T22:01:47.464Z,21.99
2022-08-11T22:07:09.324Z,22.03
2022-08-11T22:12:35.453Z,22.00
2022-08-11T22:17:58.291Z,22.01
2022-08-11T22:23:21.563Z,22.08
2022-08-11T22:28:43.691Z,22.07
2022-08-11T22:34:04.295Z,22.06
2022-08-11T22:39:26.166Z,21.90
2022-08-11T22:44:47.828Z,21.98
2022-08-11T22:50:14.002Z,21.92
2022-08-11T22:55:37.554Z,21.91
2022-08-11T23:00:59.621Z,21.81
2022-08-11T23:06:21.811Z,21.79
2022-08-11T23:12:06.530Z,21.69
2022-08-11T23:17:24.631Z,21.61
2022-08-11T23:22:50.152Z,21.65
2022-08-11T23:28:11.472Z,21.58
2022-08-11T23:33:36.522Z,21.47
2022-08-11T23:38:56.579Z,21.30
2022-08-11T23:44:19.367Z,21.40
2022-08-11T23:49:41.321Z,21.32
2022-08-11T23:55:03.508Z,21.28
